createdAt,value
2023-03-05T00:04:10.011Z,46.71
2023-03-05T00:09:06.536Z,46.58
2023-03-05T00:14:03.146Z,46.49
2023-03-05T00:18:59.616Z,46.74
2023-03-05T00:25:10.250Z,46.95
2023-03-05T00:30:06.789Z,47.13
2023-03-05T00:35:03.350Z,47.53
2023-03-05T00:39:59.893Z,47.29
2023-03-05T00:51:07.047Z,47.18
2023-03-05T00:56:03.611Z,47.12
2023-03-05T01:02:06.153Z,47.36
2023-03-05T01:07:02.597Z,47.52
2023-03-05T01:18:09.807Z,47.75
2023-03-05T01:23:06.337Z,47.6
2023-03-05T01:28:02.879Z,47.71
2023-03-05T01:32:59.453Z,47.8
2023-03-05T01:39:10.037Z,47.92
2023-03-05T01:44:06.594Z,47.68
2023-03-05T01:49:11.389Z,47.5
2023-03-05T01:54:07.880Z,47.05
2023-03-05T01:56:36.123Z,46.82
2023-03-05T01:58:56.195Z,46.5
2023-03-05T02:05:06.869Z,46.72
2023-03-05T02:10:03.408Z,47.08
2023-03-05T02:14:59.955Z,47.65
2023-03-05T02:21:10.561Z,48.1
2023-03-05T02:26:07.119Z,48.48
2023-03-05T02:31:03.639Z,47.98
2023-03-05T02:36:00.256Z,47.84
2023-03-05T02:42:10.886Z,48.04
2023-03-05T02:47:07.393Z,47.61
2023-03-05T02:52:03.908Z,47.85
2023-03-05T02:57:00.425Z,48.15
2023-03-05T03:03:03.007Z,48.07
2023-03-05T03:07:59.433Z,47.9
2023-03-05T03:14:10.164Z,47.97
2023-03-05T03:19:06.633Z,47.97
2023-03-05T03:24:03.204Z,47.79
2023-03-05T03:28:59.757Z,47.33
2023-03-05T03:35:10.372Z,47.32
2023-03-05T03:40:06.901Z,47.67
2023-03-05T03:45:03.474Z,48.14
2023-03-05T03:49:59.978Z,48.26
2023-03-05T03:56:10.644Z,48.38
2023-03-05T04:01:07.164Z,48.39
2023-03-05T04:06:03.707Z,48.13
2023-03-05T04:12:06.165Z,47.67
2023-03-05T04:17:02.705Z,47.4
2023-03-05T04:28:09.956Z,47.64
2023-03-05T04:33:06.474Z,47.5
2023-03-05T04:38:02.998Z,47.35
2023-03-05T04:42:59.514Z,47.44
2023-03-05T04:49:10.166Z,47.23
2023-03-05T04:54:06.665Z,47.43
2023-03-05T04:59:03.250Z,46.91
2023-03-05T05:03:59.757Z,46.78
2023-03-05T05:08:56.322Z,47.66
2023-03-05T05:14:58.758Z,47.22
2023-03-05T05:21:09.438Z,47.29
2023-03-05T05:26:05.964Z,46.94
2023-03-05T05:31:02.492Z,47.3
2023-03-05T05:35:59.133Z,47.46
2023-03-05T05:42:09.736Z,48.38
2023-03-05T05:47:06.242Z,48.04
2023-03-05T05:52:02.816Z,48.62
2023-03-05T05:57:07.531Z,48.66
2023-03-05T06:02:04.034Z,48.65
2023-03-05T06:07:00.569Z,49.05
2023-03-05T06:13:03.079Z,48.49
2023-03-05T06:17:59.547Z,48.76
2023-03-05T06:24:10.254Z,48.62
2023-03-05T06:29:06.788Z,49.33
2023-03-05T06:34:03.349Z,49.09
2023-03-05T06:38:59.962Z,47.92
2023-03-05T06:45:10.597Z,47.98
2023-03-05T06:50:07.092Z,47.48
2023-03-05T06:55:03.584Z,47.41
2023-03-05T07:00:00.104Z,47.54
2023-03-05T07:06:10.786Z,47.25
2023-03-05T07:09:53.152Z,47.46
2023-03-05T07:17:09.802Z,47.69
2023-03-05T07:22:06.288Z,47.29
2023-03-05T07:27:02.901Z,47.07
2023-03-05T07:31:59.368Z,46.9
2023-03-05T07:38:10.056Z,46.86
2023-03-05T07:43:06.562Z,47.21
2023-03-05T07:48:03.099Z,47.02
2023-03-05T07:52:59.661Z,47.52
2023-03-05T07:59:10.311Z,47.84
2023-03-05T08:04:06.885Z,47.25
2023-03-05T08:09:03.418Z,47.29
2023-03-05T08:13:59.930Z,47.72
2023-03-05T08:24:58.928Z,46.77
2023-03-05T08:31:09.636Z,46.51
2023-03-05T08:36:06.110Z,46.82
2023-03-05T08:41:02.624Z,46.66
2023-03-05T08:45:59.165Z,46.26
2023-03-05T08:52:09.850Z,46.12
2023-03-05T08:57:06.350Z,46.03
2023-03-05T09:02:03.049Z,45.88
2023-03-05T09:06:59.425Z,45.65
2023-03-05T09:13:10.110Z,45.56
2023-03-05T09:18:06.640Z,45.75
2023-03-05T09:21:49.022Z,45.65
2023-03-05T09:29:05.672Z,44.78
2023-03-05T09:34:02.425Z,44.68
2023-03-05T09:38:58.768Z,45.07
2023-03-05T09:45:09.367Z,44.66
2023-03-05T09:50:05.914Z,44.81
2023-03-05T09:55:02.447Z,45.2
2023-03-05T09:59:58.969Z,44.69
2023-03-05T10:06:17.830Z,44
2023-03-05T10:10:00.261Z,43.31
2023-03-05T10:16:10.955Z,43.05
2023-03-05T10:27:09.983Z,42.87
2023-03-05T10:32:06.510Z,41.97
2023-03-05T10:37:03.009Z,42.62
2023-03-05T10:41:59.493Z,42.23
2023-03-05T10:48:10.186Z,42.05
2023-03-05T10:53:06.729Z,41.74
2023-03-05T10:58:03.295Z,41.14
2023-03-05T11:02:59.774Z,39.64
2023-03-05T11:09:10.386Z,41.91
2023-03-05T11:14:06.972Z,40.55
2023-03-05T11:19:03.479Z,40.48
2023-03-05T11:25:05.932Z,40.23
2023-03-05T11:30:02.497Z,40
2023-03-05T11:34:59.000Z,39.72
2023-03-05T11:41:09.743Z,39.34
2023-03-05T11:46:06.343Z,40.14
2023-03-05T11:51:02.821Z,41.24
2023-03-05T12:02:10.014Z,38.62
2023-03-05T12:07:06.498Z,39.11
2023-03-05T12:12:03.054Z,39.29
2023-03-05T12:16:59.558Z,39.05
2023-03-05T12:23:02.045Z,38.75
2023-03-05T12:27:58.596Z,39.08
2023-03-05T12:34:09.305Z,38.91
2023-03-05T12:39:05.768Z,38.67
2023-03-05T12:44:02.327Z,38.49
2023-03-05T12:48:58.856Z,39.54
2023-03-05T12:55:09.497Z,38.47
2023-03-05T13:00:06.029Z,38.74
2023-03-05T13:05:02.575Z,38.24
2023-03-05T13:09:59.102Z,38.6
2023-03-05T13:16:09.825Z,38.72
2023-03-05T13:21:06.326Z,39.82
2023-03-05T13:27:08.743Z,38.69
2023-03-05T13:32:05.340Z,38.89
2023-03-05T13:37:01.854Z,39.04
2023-03-05T13:41:58.352Z,38.94
2023-03-05T13:48:09.032Z,39.87
2023-03-05T13:53:05.577Z,39.74
2023-03-05T13:58:02.102Z,39.29
2023-03-05T14:02:59.638Z,39.31
2023-03-05T14:09:09.297Z,39.22
2023-03-05T14:14:14.504Z,39.6
2023-03-05T14:24:07.129Z,40.47
2023-03-05T14:30:09.648Z,40.5
2023-03-05T14:35:06.149Z,40.56
2023-03-05T14:40:02.777Z,40.17
2023-03-05T14:44:59.218Z,40.84
2023-03-05T14:51:09.856Z,39.69
2023-03-05T14:56:06.341Z,40.32
2023-03-05T15:01:02.976Z,39.79
2023-03-05T15:03:31.133Z,39.95
2023-03-05T15:05:59.429Z,39.96
2023-03-05T15:12:10.108Z,39.81
2023-03-05T15:17:06.650Z,40.24
2023-03-05T15:22:03.180Z,40.05
2023-03-05T15:33:02.160Z,40.65
2023-03-05T15:37:58.710Z,40.87
2023-03-05T15:44:09.400Z,40.75
2023-03-05T15:49:05.982Z,40.66
2023-03-05T15:54:02.496Z,41.24
2023-03-05T15:58:58.972Z,41.16
2023-03-05T16:05:09.605Z,41.03
2023-03-05T16:10:06.153Z,40.49
2023-03-05T16:15:02.957Z,40.84
2023-03-05T16:19:59.216Z,40.85
2023-03-05T16:26:01.737Z,40.39
2023-03-05T16:37:08.971Z,41.45
2023-03-05T16:42:05.448Z,41.21
2023-03-05T16:47:02.041Z,41.53
2023-03-05T16:52:01.300Z,41.59
2023-03-05T17:03:05.743Z,41.11
2023-03-05T17:08:02.307Z,40.52
2023-03-05T17:12:58.783Z,41.07
2023-03-05T17:19:09.460Z,41.31
2023-03-05T17:30:08.527Z,40.76
2023-03-05T17:40:01.685Z,41.73
2023-03-05T17:44:58.014Z,41.63
2023-03-05T17:51:08.688Z,41.71
2023-03-05T17:56:06.278Z,40.97
2023-03-05T18:01:01.861Z,41.4
2023-03-05T18:12:09.010Z,42.17
2023-03-05T18:17:05.503Z,41.11
2023-03-05T18:22:10.239Z,42.06
2023-03-05T18:26:58.589Z,41.07
2023-03-05T18:33:09.497Z,41.22
2023-03-05T18:38:05.777Z,41.13
2023-03-05T18:43:02.320Z,41.28
2023-03-05T18:47:58.881Z,41.45
2023-03-05T18:54:09.525Z,41.31
2023-03-05T18:59:06.007Z,40.64
2023-03-05T19:04:02.608Z,40.89
2023-03-05T19:08:59.158Z,41.99
2023-03-05T19:15:09.759Z,41.6
2023-03-05T19:20:06.271Z,41.87
2023-03-05T19:31:05.373Z,42.09
2023-03-05T19:36:01.847Z,41.83
2023-03-05T19:40:58.402Z,41.93
2023-03-05T19:47:09.016Z,42.12
2023-03-05T19:52:05.577Z,42.12
2023-03-05T19:57:02.065Z,42.34
2023-03-05T20:01:58.664Z,41.69
2023-03-05T20:08:09.293Z,42.31
2023-03-05T20:13:05.836Z,42.23
2023-03-05T20:18:02.345Z,41.95
2023-03-05T20:22:58.920Z,42.64
2023-03-05T20:29:01.363Z,42.58
2023-03-05T20:33:57.888Z,42.19
2023-03-05T20:40:08.553Z,42.25
2023-03-05T20:45:05.118Z,42.96
2023-03-05T20:50:01.600Z,43.11
2023-03-05T20:54:58.265Z,43.24
2023-03-05T21:01:08.899Z,42.72
2023-03-05T21:06:05.364Z,42.74
2023-03-05T21:11:01.899Z,43.01
2023-03-05T21:15:58.523Z,43
2023-03-05T21:22:09.080Z,42.47
2023-03-05T21:33:08.105Z,43.02
2023-03-05T21:38:04.663Z,43.19
2023-03-05T21:43:01.167Z,43.21
2023-03-05T21:49:11.848Z,43.03
2023-03-05T21:54:08.413Z,43.71
2023-03-05T21:59:04.949Z,43.25
2023-03-05T22:04:01.503Z,43.36
2023-03-05T22:08:57.989Z,42.77
2023-03-05T22:15:08.613Z,42.82
2023-03-05T22:20:05.163Z,42.88
2023-03-05T22:25:01.674Z,42.88
2023-03-05T22:29:58.202Z,43.03
2023-03-05T22:36:08.853Z,42.47
2023-03-05T22:41:05.442Z,42.94
2023-03-05T22:46:01.970Z,43.01
2023-03-05T22:50:58.456Z,43.07
2023-03-05T22:57:09.131Z,43
2023-03-05T23:02:05.642Z,42.89
2023-03-05T23:07:02.224Z,42.49
2023-03-05T23:11:58.726Z,42.13
2023-03-05T23:18:09.457Z,41.52
2023-03-05T23:23:05.988Z,41.59
2023-03-05T23:28:02.515Z,41.76
2023-03-05T23:34:04.964Z,41.25
2023-03-05T23:39:01.468Z,41.69
2023-03-05T23:50:08.701Z,41.56
2023-03-05T23:55:05.252Z,41.22
